Eizo Maru — JD2944 — position and weather

sailwx.info

Track history (hours):
 
Tides and Currents Weather Stations Pressure Air Temp Water Temp Dewpoint Dewpoint Depression Visibility Wind Speed Wind Dir Waves Ship Positions

Eizo Maru

Last reported at 2017-Mar-23 06:17 UTC. Time now 2017-Mar-23 08:08 UTC.
Position N 35°14' E 139°46'.

Length 80 m; draft 5.2 m.

Type: Tanker. MMSI: 431000976.

Date/timePositionNaut miles runAvg speedWind from/ knotsBaromVisibWave heightAir tempDewpointWater temp
2017-Mar-23 06:17N 35°14' E 139°46'912.4
2017-Mar-23 05:33N 35°22' E 139°42'9 9.3
2017-Mar-23 04:33N 35°31' E 139°46'0 0.0
2017-Mar-23 03:28N 35°31' E 139°46'0 0.0
2017-Mar-23 02:31N 35°31' E 139°46'0 0.0
2017-Mar-23 01:31N 35°31' E 139°46'0 0.0
2017-Mar-23 00:19N 35°31' E 139°46'0 0.0
2017-Mar-22 23:19N 35°31' E 139°46'0 0.0
2017-Mar-22 22:07N 35°31' E 139°46'2 4.3
2017-Mar-22 21:33N 35°29' E 139°48'0 0.2
2017-Mar-22 20:31N 35°29' E 139°48'0 0.0
2017-Mar-22 19:31N 35°29' E 139°48'0 0.0
2017-Mar-22 18:31N 35°29' E 139°48'0 0.0
2017-Mar-22 17:31N 35°29' E 139°48'0 0.0
2017-Mar-22 16:31N 35°29' E 139°48'0 0.0
2017-Mar-22 15:31N 35°29' E 139°48'0 0.0
2017-Mar-22 14:31N 35°29' E 139°48'0 0.0
2017-Mar-22 13:28N 35°29' E 139°48'6 6.5
2017-Mar-22 12:33N 35°23' E 139°46'1211.8
2017-Mar-22 11:33N 35°11' E 139°47'1312.9
2017-Mar-22 10:33N 35°01' E 139°37'  
2017-Mar-18 07:33N 35°05' E 139°38'1212.4
2017-Mar-18 06:33N 35°16' E 139°46'1110.9
2017-Mar-18 05:34N 35°26' E 139°45'5 4.6
2017-Mar-18 04:34N 35°31' E 139°46'0 0.0
2017-Mar-18 03:21N 35°31' E 139°46'0 0.0
2017-Mar-18 01:28N 35°31' E 139°46'3 2.9
2017-Mar-18 00:31N 35°28' E 139°48'0 0.0
2017-Mar-17 23:31N 35°28' E 139°48'0 0.0
2017-Mar-17 22:31N 35°28' E 139°48'0 0.0
2017-Mar-17 21:31N 35°28' E 139°48'0 0.0
2017-Mar-17 20:31N 35°28' E 139°48'0 0.0
2017-Mar-17 19:31N 35°28' E 139°48'0 0.0
2017-Mar-17 18:31N 35°28' E 139°48'0 0.0
2017-Mar-17 17:31N 35°28' E 139°48'0 0.0
2017-Mar-17 16:31N 35°28' E 139°48'0 0.0
2017-Mar-17 15:31N 35°28' E 139°48'6 6.3
2017-Mar-17 14:33N 35°23' E 139°45'1211.8
2017-Mar-17 13:33N 35°11' E 139°46'1312.8
2017-Mar-17 12:33N 35°02' E 139°36'230 7.1
2017-Mar-16 04:07N 34°08' E 135°05'2 0.4
2017-Mar-15 21:28N 34°07' E 135°07'0 0.0
2017-Mar-14 02:23N 34°07' E 135°08'  
Track history (hours):
 
Tides and Currents Weather Stations Pressure Air Temp Water Temp Dewpoint Dewpoint Depression Visibility Wind Speed Wind Dir Waves Ship Positions

Eizo Maru

Last reported at 2017-Mar-23 06:17 UTC. Time now 2017-Mar-23 08:08 UTC.
Position N 35°14' E 139°46'.

Length 80 m; draft 5.2 m.

Type: Tanker. MMSI: 431000976.

Date/timePositionNaut miles runAvg speedWind from/ knotsBaromVisibWave heightAir tempDewpointWater temp
2017-Mar-23 06:17N 35°14' E 139°46'912.4
2017-Mar-23 05:33N 35°22' E 139°42'9 9.3
2017-Mar-23 04:33N 35°31' E 139°46'0 0.0
2017-Mar-23 03:28N 35°31' E 139°46'0 0.0
2017-Mar-23 02:31N 35°31' E 139°46'0 0.0
2017-Mar-23 01:31N 35°31' E 139°46'0 0.0
2017-Mar-23 00:19N 35°31' E 139°46'0 0.0
2017-Mar-22 23:19N 35°31' E 139°46'0 0.0
2017-Mar-22 22:07N 35°31' E 139°46'2 4.3
2017-Mar-22 21:33N 35°29' E 139°48'0 0.2
2017-Mar-22 20:31N 35°29' E 139°48'0 0.0
2017-Mar-22 19:31N 35°29' E 139°48'0 0.0
2017-Mar-22 18:31N 35°29' E 139°48'0 0.0
2017-Mar-22 17:31N 35°29' E 139°48'0 0.0
2017-Mar-22 16:31N 35°29' E 139°48'0 0.0
2017-Mar-22 15:31N 35°29' E 139°48'0 0.0
2017-Mar-22 14:31N 35°29' E 139°48'0 0.0
2017-Mar-22 13:28N 35°29' E 139°48'6 6.5
2017-Mar-22 12:33N 35°23' E 139°46'1211.8
2017-Mar-22 11:33N 35°11' E 139°47'1312.9
2017-Mar-22 10:33N 35°01' E 139°37'  
2017-Mar-18 07:33N 35°05' E 139°38'1212.4
2017-Mar-18 06:33N 35°16' E 139°46'1110.9
2017-Mar-18 05:34N 35°26' E 139°45'5 4.6
2017-Mar-18 04:34N 35°31' E 139°46'0 0.0
2017-Mar-18 03:21N 35°31' E 139°46'0 0.0
2017-Mar-18 01:28N 35°31' E 139°46'3 2.9
2017-Mar-18 00:31N 35°28' E 139°48'0 0.0
2017-Mar-17 23:31N 35°28' E 139°48'0 0.0
2017-Mar-17 22:31N 35°28' E 139°48'0 0.0
2017-Mar-17 21:31N 35°28' E 139°48'0 0.0
2017-Mar-17 20:31N 35°28' E 139°48'0 0.0
2017-Mar-17 19:31N 35°28' E 139°48'0 0.0
2017-Mar-17 18:31N 35°28' E 139°48'0 0.0
2017-Mar-17 17:31N 35°28' E 139°48'0 0.0
2017-Mar-17 16:31N 35°28' E 139°48'0 0.0
2017-Mar-17 15:31N 35°28' E 139°48'6 6.3
2017-Mar-17 14:33N 35°23' E 139°45'1211.8
2017-Mar-17 13:33N 35°11' E 139°46'1312.8
2017-Mar-17 12:33N 35°02' E 139°36'230 7.1
2017-Mar-16 04:07N 34°08' E 135°05'2 0.4
2017-Mar-15 21:28N 34°07' E 135°07'0 0.0
2017-Mar-14 02:23N 34°07' E 135°08'  

Dump ship's entire track history